sensor_id;sensor_type;location;lat;lon;timestamp;temperature;humidity
3312;DHT22;1668;49.648;8.570;2024-03-23T00:53:42;11.00;1.00
3312;DHT22;1668;49.648;8.570;2024-03-23T00:56:08;11.00;1.00
3312;DHT22;1668;49.648;8.570;2024-03-23T00:58:35;11.00;1.00
3312;DHT22;1668;49.648;8.570;2024-03-23T01:01:01;11.00;1.00
3312;DHT22;1668;49.648;8.570;2024-03-23T01:03:29;10.90;1.00
3312;DHT22;1668;49.648;8.570;2024-03-23T01:05:59;10.90;2.10
3312;DHT22;1668;49.648;8.570;2024-03-23T01:08:26;11.00;99.90
3312;DHT22;1668;49.648;8.570;2024-03-23T01:10:56;10.90;99.90
3312;DHT22;1668;49.648;8.570;2024-03-23T01:13:24;10.90;99.90
3312;DHT22;1668;49.648;8.570;2024-03-23T01:15:50;10.90;99.90
3312;DHT22;1668;49.648;8.570;2024-03-23T01:18:17;10.90;99.90
3312;DHT22;1668;49.648;8.570;2024-03-23T01:20:44;11.00;99.90
3312;DHT22;1668;49.648;8.570;2024-03-23T01:23:11;11.00;99.90
3312;DHT22;1668;49.648;8.570;2024-03-23T01:25:37;11.00;99.90
3312;DHT22;1668;49.648;8.570;2024-03-23T01:28:06;11.00;99.90
3312;DHT22;1668;49.648;8.570;2024-03-23T01:30:32;11.00;1.00
3312;DHT22;1668;49.648;8.570;2024-03-23T01:32:59;11.00;99.90
3312;DHT22;1668;49.648;8.570;2024-03-23T01:35:25;11.00;1.00
3312;DHT22;1668;49.648;8.570;2024-03-23T01:37:52;11.10;99.90
3312;DHT22;1668;49.648;8.570;2024-03-23T01:40:19;11.10;1.00
3312;DHT22;1668;49.648;8.570;2024-03-23T01:42:55;11.10;1.00
3312;DHT22;1668;49.648;8.570;2024-03-23T01:45:23;11.10;1.00
3312;DHT22;1668;49.648;8.570;2024-03-23T01:47:50;11.10;1.00
3312;DHT22;1668;49.648;8.570;2024-03-23T01:50:16;11.10;1.00
3312;DHT22;1668;49.648;8.570;2024-03-23T01:52:43;11.10;99.90
3312;DHT22;1668;49.648;8.570;2024-03-23T01:55:10;11.20;99.90
3312;DHT22;1668;49.648;8.570;2024-03-23T01:57:38;11.20;99.90
3312;DHT22;1668;49.648;8.570;2024-03-23T02:00:05;11.20;99.90
3312;DHT22;1668;49.648;8.570;2024-03-23T02:02:34;11.20;99.90
3312;DHT22;1668;49.648;8.570;2024-03-23T02:05:00;11.20;99.90
3312;DHT22;1668;49.648;8.570;2024-03-23T02:07:27;11.20;99.90
3312;DHT22;1668;49.648;8.570;2024-03-23T02:09:54;11.20;99.90
3312;DHT22;1668;49.648;8.570;2024-03-23T02:12:22;11.20;99.90
3312;DHT22;1668;49.648;8.570;2024-03-23T02:14:48;11.20;99.90
3312;DHT22;1668;49.648;8.570;2024-03-23T02:17:14;11.20;1.00
3312;DHT22;1668;49.648;8.570;2024-03-23T02:19:42;11.20;1.00
3312;DHT22;1668;49.648;8.570;2024-03-23T02:22:09;11.10;99.90
3312;DHT22;1668;49.648;8.570;2024-03-23T02:24:37;11.10;1.00
3312;DHT22;1668;49.648;8.570;2024-03-23T02:27:04;11.10;1.00
3312;DHT22;1668;49.648;8.570;2024-03-23T02:29:30;11.10;1.00
3312;DHT22;1668;49.648;8.570;2024-03-23T02:31:57;11.10;1.00
3312;DHT22;1668;49.648;8.570;2024-03-23T02:34:24;11.10;1.00
3312;DHT22;1668;49.648;8.570;2024-03-23T02:36:51;11.10;1.00
3312;DHT22;1668;49.648;8.570;2024-03-23T02:39:17;11.10;1.00
3312;DHT22;1668;49.648;8.570;2024-03-23T02:41:45;11.10;1.00
3312;DHT22;1668;49.648;8.570;2024-03-23T02:44:13;11.10;1.00
3312;DHT22;1668;49.648;8.570;2024-03-23T02:46:40;11.10;99.90
3312;DHT22;1668;49.648;8.570;2024-03-23T02:49:07;11.00;99.90
3312;DHT22;1668;49.648;8.570;2024-03-23T02:51:34;11.10;99.90
3312;DHT22;1668;49.648;8.570;2024-03-23T02:54:00;11.00;1.00
3312;DHT22;1668;49.648;8.570;2024-03-23T02:56:27;11.00;99.90
3312;DHT22;1668;49.648;8.570;2024-03-23T02:58:54;11.00;99.90
3312;DHT22;1668;49.648;8.570;2024-03-23T03:01:21;11.00;1.00
3312;DHT22;1668;49.648;8.570;2024-03-23T03:03:47;11.00;1.00
3312;DHT22;1668;49.648;8.570;2024-03-23T03:06:23;11.00;1.00
3312;DHT22;1668;49.648;8.570;2024-03-23T03:08:49;11.10;1.00
3312;DHT22;1668;49.648;8.570;2024-03-23T03:11:16;11.10;1.00
3312;DHT22;1668;49.648;8.570;2024-03-23T03:13:42;11.10;1.00
3312;DHT22;1668;49.648;8.570;2024-03-23T03:16:10;11.10;1.00
3312;DHT22;1668;49.648;8.570;2024-03-23T03:18:37;11.20;1.00
3312;DHT22;1668;49.648;8.570;2024-03-23T03:21:04;11.20;99.90
3312;DHT22;1668;49.648;8.570;2024-03-23T03:23:31;11.20;91.90
3312;DHT22;1668;49.648;8.570;2024-03-23T03:25:58;11.30;1.00
3312;DHT22;1668;49.648;8.570;2024-03-23T03:28:24;11.30;1.00
3312;DHT22;1668;49.648;8.570;2024-03-23T03:30:51;11.40;99.90
3312;DHT22;1668;49.648;8.570;2024-03-23T03:33:19;11.40;99.90
3312;DHT22;1668;49.648;8.570;2024-03-23T03:35:46;11.40;99.90
3312;DHT22;1668;49.648;8.570;2024-03-23T03:38:12;11.40;46.20
3312;DHT22;1668;49.648;8.570;2024-03-23T03:40:39;11.40;1.00
3312;DHT22;1668;49.648;8.570;2024-03-23T03:43:04;11.50;1.00
3312;DHT22;1668;49.648;8.570;2024-03-23T03:45:31;11.50;1.00
3312;DHT22;1668;49.648;8.570;2024-03-23T03:47:58;11.50;99.90
3312;DHT22;1668;49.648;8.570;2024-03-23T03:50:26;11.50;6.20
3312;DHT22;1668;49.648;8.570;2024-03-23T03:52:52;11.50;1.00
3312;DHT22;1668;49.648;8.570;2024-03-23T03:55:19;11.50;1.00
3312;DHT22;1668;49.648;8.570;2024-03-23T03:57:45;11.50;1.00
3312;DHT22;1668;49.648;8.570;2024-03-23T04:00:13;11.60;99.90
3312;DHT22;1668;49.648;8.570;2024-03-23T04:02:39;11.60;99.90
3312;DHT22;1668;49.648;8.570;2024-03-23T04:05:07;11.60;9.40
3312;DHT22;1668;49.648;8.570;2024-03-23T04:07:35;11.60;64.60
3312;DHT22;1668;49.648;8.570;2024-03-23T04:10:02;11.60;29.80
3312;DHT22;1668;49.648;8.570;2024-03-23T04:12:32;11.60;94.10
3312;DHT22;1668;49.648;8.570;2024-03-23T04:15:00;11.60;14.10
3312;DHT22;1668;49.648;8.570;2024-03-23T04:17:26;11.60;26.70
3312;DHT22;1668;49.648;8.570;2024-03-23T04:19:57;11.60;99.90
3312;DHT22;1668;49.648;8.570;2024-03-23T04:22:23;11.60;96.80
3312;DHT22;1668;49.648;8.570;2024-03-23T04:24:53;11.60;99.90
3312;DHT22;1668;49.648;8.570;2024-03-23T04:27:19;11.60;57.30
3312;DHT22;1668;49.648;8.570;2024-03-23T04:29:47;11.60;99.90
3312;DHT22;1668;49.648;8.570;2024-03-23T04:32:14;11.60;99.90
3312;DHT22;1668;49.648;8.570;2024-03-23T04:34:41;11.60;98.90
3312;DHT22;1668;49.648;8.570;2024-03-23T04:37:07;11.60;99.90
3312;DHT22;1668;49.648;8.570;2024-03-23T04:39:35;11.60;75.40
3312;DHT22;1668;49.648;8.570;2024-03-23T04:42:04;11.60;99.90
3312;DHT22;1668;49.648;8.570;2024-03-23T04:44:31;11.60;99.90
3312;DHT22;1668;49.648;8.570;2024-03-23T04:47:00;11.60;99.90
3312;DHT22;1668;49.648;8.570;2024-03-23T04:49:27;11.60;1.00
3312;DHT22;1668;49.648;8.570;2024-03-23T04:51:54;11.60;1.00
3312;DHT22;1668;49.648;8.570;2024-03-23T04:54:21;11.60;1.00
3312;DHT22;1668;49.648;8.570;2024-03-23T04:56:47;11.50;1.00
3312;DHT22;1668;49.648;8.570;2024-03-23T04:59:15;11.50;82.30
3312;DHT22;1668;49.648;8.570;2024-03-23T05:01:41;11.50;99.90
3312;DHT22;1668;49.648;8.570;2024-03-23T05:04:09;11.40;1.00
3312;DHT22;1668;49.648;8.570;2024-03-23T05:06:35;11.10;1.00
3312;DHT22;1668;49.648;8.570;2024-03-23T05:09:02;10.80;99.90
3312;DHT22;1668;49.648;8.570;2024-03-23T05:11:31;10.50;20.80
3312;DHT22;1668;49.648;8.570;2024-03-23T05:13:58;10.50;1.00
3312;DHT22;1668;49.648;8.570;2024-03-23T05:16:26;10.30;35.50
3312;DHT22;1668;49.648;8.570;2024-03-23T05:18:53;10.10;99.90
3312;DHT22;1668;49.648;8.570;2024-03-23T05:21:19;10.00;99.90
3312;DHT22;1668;49.648;8.570;2024-03-23T05:23:46;10.00;99.90
3312;DHT22;1668;49.648;8.570;2024-03-23T05:26:13;9.90;1.00
3312;DHT22;1668;49.648;8.570;2024-03-23T05:28:40;9.80;1.00
3312;DHT22;1668;49.648;8.570;2024-03-23T05:31:06;9.70;99.90
3312;DHT22;1668;49.648;8.570;2024-03-23T05:33:36;9.70;1.00
3312;DHT22;1668;49.648;8.570;2024-03-23T05:36:04;9.60;1.00
3312;DHT22;1668;49.648;8.570;2024-03-23T05:38:31;9.60;1.00
3312;DHT22;1668;49.648;8.570;2024-03-23T05:40:58;9.40;1.00
3312;DHT22;1668;49.648;8.570;2024-03-23T05:43:25;9.20;90.10
3312;DHT22;1668;49.648;8.570;2024-03-23T05:45:54;9.10;1.00
3312;DHT22;1668;49.648;8.570;2024-03-23T05:48:21;9.10;99.90
3312;DHT22;1668;49.648;8.570;2024-03-23T05:50:49;9.10;99.90
3312;DHT22;1668;49.648;8.570;2024-03-23T05:53:17;9.00;99.90
3312;DHT22;1668;49.648;8.570;2024-03-23T05:55:43;8.90;1.00
3312;DHT22;1668;49.648;8.570;2024-03-23T05:58:11;8.90;99.90
3312;DHT22;1668;49.648;8.570;2024-03-23T06:00:37;8.90;1.00
3312;DHT22;1668;49.648;8.570;2024-03-23T06:03:04;8.90;1.00
3312;DHT22;1668;49.648;8.570;2024-03-23T06:05:30;8.90;99.90
3312;DHT22;1668;49.648;8.570;2024-03-23T06:07:59;8.80;1.00
3312;DHT22;1668;49.648;8.570;2024-03-23T06:10:24;8.70;1.00
3312;DHT22;1668;49.648;8.570;2024-03-23T06:12:51;8.70;99.90
3312;DHT22;1668;49.648;8.570;2024-03-23T06:15:17;8.70;99.90
3312;DHT22;1668;49.648;8.570;2024-03-23T06:17:45;8.70;99.90
3312;DHT22;1668;49.648;8.570;2024-03-23T06:20:11;8.60;99.90
3312;DHT22;1668;49.648;8.570;2024-03-23T06:22:38;8.60;1.00
3312;DHT22;1668;49.648;8.570;2024-03-23T06:25:06;8.60;1.00
3312;DHT22;1668;49.648;8.570;2024-03-23T06:27:34;8.60;1.00
3312;DHT22;1668;49.648;8.570;2024-03-23T06:30:00;8.60;1.00
3312;DHT22;1668;49.648;8.570;2024-03-23T06:32:27;8.60;1.00
3312;DHT22;1668;49.648;8.570;2024-03-23T06:34:54;8.50;1.00
3312;DHT22;1668;49.648;8.570;2024-03-23T06:37:22;8.50;1.00
3312;DHT22;1668;49.648;8.570;2024-03-23T06:39:47;8.40;1.00
3312;DHT22;1668;49.648;8.570;2024-03-23T06:42:16;8.40;1.00
3312;DHT22;1668;49.648;8.570;2024-03-23T06:44:43;8.40;99.90
3312;DHT22;1668;49.648;8.570;2024-03-23T06:47:10;8.40;99.90
3312;DHT22;1668;49.648;8.570;2024-03-23T06:49:36;8.40;99.90
3312;DHT22;1668;49.648;8.570;2024-03-23T06:52:03;8.40;1.00
3312;DHT22;1668;49.648;8.570;2024-03-23T06:54:29;8.40;28.00
3312;DHT22;1668;49.648;8.570;2024-03-23T06:56:56;8.40;1.00
3312;DHT22;1668;49.648;8.570;2024-03-23T06:59:23;8.40;1.00
3312;DHT22;1668;49.648;8.570;2024-03-23T07:01:50;8.40;1.00
3312;DHT22;1668;49.648;8.570;2024-03-23T07:04:16;8.50;1.00
3312;DHT22;1668;49.648;8.570;2024-03-23T07:06:44;8.50;99.90
3312;DHT22;1668;49.648;8.570;2024-03-23T07:09:10;8.40;1.00
3312;DHT22;1668;49.648;8.570;2024-03-23T07:11:37;8.50;99.90
3312;DHT22;1668;49.648;8.570;2024-03-23T07:14:03;8.50;1.00
3312;DHT22;1668;49.648;8.570;2024-03-23T07:16:32;8.40;99.90
3312;DHT22;1668;49.648;8.570;2024-03-23T07:18:58;8.30;1.00
3312;DHT22;1668;49.648;8.570;2024-03-23T07:21:25;8.30;99.90
3312;DHT22;1668;49.648;8.570;2024-03-23T07:23:51;8.40;1.00
3312;DHT22;1668;49.648;8.570;2024-03-23T07:26:18;8.40;1.00
3312;DHT22;1668;49.648;8.570;2024-03-23T07:28:44;8.30;91.20
3312;DHT22;1668;49.648;8.570;2024-03-23T07:31:13;8.30;99.90
3312;DHT22;1668;49.648;8.570;2024-03-23T07:33:44;8.40;1.00
3312;DHT22;1668;49.648;8.570;2024-03-23T07:36:12;8.30;1.00
3312;DHT22;1668;49.648;8.570;2024-03-23T07:38:40;8.40;1.00
3312;DHT22;1668;49.648;8.570;2024-03-23T07:41:09;8.30;1.00
3312;DHT22;1668;49.648;8.570;2024-03-23T07:43:36;8.30;1.00
3312;DHT22;1668;49.648;8.570;2024-03-23T07:46:04;8.20;99.90
3312;DHT22;1668;49.648;8.570;2024-03-23T07:48:30;8.20;99.90
3312;DHT22;1668;49.648;8.570;2024-03-23T07:51:02;8.10;99.90
3312;DHT22;1668;49.648;8.570;2024-03-23T07:53:29;8.10;99.90
3312;DHT22;1668;49.648;8.570;2024-03-23T07:55:57;8.10;99.90
3312;DHT22;1668;49.648;8.570;2024-03-23T07:58:23;8.10;99.90
3312;DHT22;1668;49.648;8.570;2024-03-23T08:00:50;8.10;1.00
3312;DHT22;1668;49.648;8.570;2024-03-23T08:03:16;8.20;1.00
3312;DHT22;1668;49.648;8.570;2024-03-23T08:05:43;8.10;99.90
3312;DHT22;1668;49.648;8.570;2024-03-23T08:08:10;8.00;99.90
3312;DHT22;1668;49.648;8.570;2024-03-23T08:10:46;8.10;99.90
3312;DHT22;1668;49.648;8.570;2024-03-23T08:13:13;8.20;99.90
3312;DHT22;1668;49.648;8.570;2024-03-23T08:15:40;8.10;99.90
3312;DHT22;1668;49.648;8.570;2024-03-23T08:18:06;8.10;99.90
3312;DHT22;1668;49.648;8.570;2024-03-23T08:20:33;8.10;99.90
3312;DHT22;1668;49.648;8.570;2024-03-23T08:22:59;8.20;52.10
3312;DHT22;1668;49.648;8.570;2024-03-23T08:25:27;8.20;1.00
3312;DHT22;1668;49.648;8.570;2024-03-23T08:27:53;8.20;99.90
3312;DHT22;1668;49.648;8.570;2024-03-23T08:30:20;8.30;92.50
3312;DHT22;1668;49.648;8.570;2024-03-23T08:32:46;8.40;99.90
3312;DHT22;1668;49.648;8.570;2024-03-23T08:35:13;8.50;1.00
3312;DHT22;1668;49.648;8.570;2024-03-23T08:37:39;8.50;8.80
3312;DHT22;1668;49.648;8.570;2024-03-23T08:40:07;8.60;1.00
3312;DHT22;1668;49.648;8.570;2024-03-23T08:42:35;8.70;1.00
3312;DHT22;1668;49.648;8.570;2024-03-23T08:45:02;8.70;1.00
3312;DHT22;1668;49.648;8.570;2024-03-23T08:47:28;8.80;1.00
3312;DHT22;1668;49.648;8.570;2024-03-23T08:49:55;8.90;1.00
3312;DHT22;1668;49.648;8.570;2024-03-23T08:52:23;9.00;1.00
3312;DHT22;1668;49.648;8.570;2024-03-23T08:54:52;9.00;1.00
3312;DHT22;1668;49.648;8.570;2024-03-23T08:57:18;9.00;1.00
3312;DHT22;1668;49.648;8.570;2024-03-23T08:59:46;9.00;1.00
3312;DHT22;1668;49.648;8.570;2024-03-23T09:02:12;9.10;1.00
3312;DHT22;1668;49.648;8.570;2024-03-23T09:04:39;9.20;1.00
3312;DHT22;1668;49.648;8.570;2024-03-23T09:07:05;9.30;99.90
3312;DHT22;1668;49.648;8.570;2024-03-23T09:09:32;9.40;99.90
3312;DHT22;1668;49.648;8.570;2024-03-23T09:11:58;9.40;99.90
3312;DHT22;1668;49.648;8.570;2024-03-23T09:14:25;9.40;99.90
3312;DHT22;1668;49.648;8.570;2024-03-23T09:16:52;9.40;99.90
3312;DHT22;1668;49.648;8.570;2024-03-23T09:19:19;9.50;99.90
3312;DHT22;1668;49.648;8.570;2024-03-23T09:21:45;9.60;99.90
3312;DHT22;1668;49.648;8.570;2024-03-23T09:24:12;9.60;99.90
3312;DHT22;1668;49.648;8.570;2024-03-23T09:26:38;9.70;99.90
3312;DHT22;1668;49.648;8.570;2024-03-23T09:29:05;9.80;98.30
3312;DHT22;1668;49.648;8.570;2024-03-23T09:31:31;9.90;87.30
3312;DHT22;1668;49.648;8.570;2024-03-23T09:34:00;10.00;99.90
3312;DHT22;1668;49.648;8.570;2024-03-23T09:36:26;10.10;62.10
3312;DHT22;1668;49.648;8.570;2024-03-23T09:38:53;10.10;59.30
3312;DHT22;1668;49.648;8.570;2024-03-23T09:41:19;10.10;52.60
3312;DHT22;1668;49.648;8.570;2024-03-23T09:43:46;10.20;48.80
3312;DHT22;1668;49.648;8.570;2024-03-23T09:46:14;10.10;1.00
3312;DHT22;1668;49.648;8.570;2024-03-23T09:48:43;10.10;1.00
3312;DHT22;1668;49.648;8.570;2024-03-23T09:51:13;10.10;1.00
3312;DHT22;1668;49.648;8.570;2024-03-23T09:53:40;10.10;1.00
3312;DHT22;1668;49.648;8.570;2024-03-23T09:56:07;10.10;1.00
3312;DHT22;1668;49.648;8.570;2024-03-23T09:58:35;10.10;1.00
3312;DHT22;1668;49.648;8.570;2024-03-23T10:01:01;10.20;1.00
3312;DHT22;1668;49.648;8.570;2024-03-23T10:03:28;10.30;1.00
3312;DHT22;1668;49.648;8.570;2024-03-23T10:06:01;10.30;1.00
3312;DHT22;1668;49.648;8.570;2024-03-23T10:08:29;10.30;1.00
3312;DHT22;1668;49.648;8.570;2024-03-23T10:10:56;10.30;1.00
3312;DHT22;1668;49.648;8.570;2024-03-23T10:13:27;10.40;1.00
3312;DHT22;1668;49.648;8.570;2024-03-23T10:15:57;10.50;1.00
3312;DHT22;1668;49.648;8.570;2024-03-23T10:18:25;10.50;1.00
3312;DHT22;1668;49.648;8.570;2024-03-23T10:20:52;10.40;1.00
3312;DHT22;1668;49.648;8.570;2024-03-23T10:23:34;10.30;1.00
3312;DHT22;1668;49.648;8.570;2024-03-23T10:26:13;10.30;1.00
3312;DHT22;1668;49.648;8.570;2024-03-23T10:28:51;10.30;1.00
3312;DHT22;1668;49.648;8.570;2024-03-23T10:31:17;10.30;1.00
3312;DHT22;1668;49.648;8.570;2024-03-23T10:33:45;10.40;1.00
3312;DHT22;1668;49.648;8.570;2024-03-23T10:36:12;10.40;1.00
3312;DHT22;1668;49.648;8.570;2024-03-23T10:38:42;10.50;1.00
3312;DHT22;1668;49.648;8.570;2024-03-23T10:41:09;10.60;1.00
3312;DHT22;1668;49.648;8.570;2024-03-23T10:43:36;10.80;1.00
3312;DHT22;1668;49.648;8.570;2024-03-23T10:46:03;10.80;1.00
3312;DHT22;1668;49.648;8.570;2024-03-23T10:48:30;10.80;1.00
3312;DHT22;1668;49.648;8.570;2024-03-23T10:50:55;10.70;1.00
3312;DHT22;1668;49.648;8.570;2024-03-23T10:53:25;10.60;1.00
3312;DHT22;1668;49.648;8.570;2024-03-23T10:55:54;10.70;1.00
3312;DHT22;1668;49.648;8.570;2024-03-23T10:58:23;10.70;1.00
3312;DHT22;1668;49.648;8.570;2024-03-23T11:00:51;10.80;1.00
3312;DHT22;1668;49.648;8.570;2024-03-23T11:03:32;10.80;1.00
3312;DHT22;1668;49.648;8.570;2024-03-23T11:05:59;10.90;1.00
3312;DHT22;1668;49.648;8.570;2024-03-23T11:08:33;10.90;1.00
3312;DHT22;1668;49.648;8.570;2024-03-23T11:11:14;10.80;1.00
3312;DHT22;1668;49.648;8.570;2024-03-23T11:13:41;10.70;1.00
3312;DHT22;1668;49.648;8.570;2024-03-23T11:16:14;10.50;1.00
3312;DHT22;1668;49.648;8.570;2024-03-23T11:18:41;9.80;1.00
3312;DHT22;1668;49.648;8.570;2024-03-23T11:21:07;9.50;1.00
3312;DHT22;1668;49.648;8.570;2024-03-23T11:23:34;9.30;1.00
3312;DHT22;1668;49.648;8.570;2024-03-23T11:26:00;9.30;1.00
3312;DHT22;1668;49.648;8.570;2024-03-23T11:28:30;9.20;1.00
3312;DHT22;1668;49.648;8.570;2024-03-23T11:30:58;9.10;18.20
3312;DHT22;1668;49.648;8.570;2024-03-23T11:33:24;9.30;99.90
3312;DHT22;1668;49.648;8.570;2024-03-23T11:35:51;9.70;99.90
3312;DHT22;1668;49.648;8.570;2024-03-23T11:38:18;9.50;22.80
3312;DHT22;1668;49.648;8.570;2024-03-23T11:40:46;9.50;1.00
3312;DHT22;1668;49.648;8.570;2024-03-23T11:43:13;9.40;1.00
3312;DHT22;1668;49.648;8.570;2024-03-23T11:45:43;9.30;1.00
3312;DHT22;1668;49.648;8.570;2024-03-23T11:48:11;9.40;1.00
3312;DHT22;1668;49.648;8.570;2024-03-23T11:50:39;9.50;1.00
3312;DHT22;1668;49.648;8.570;2024-03-23T11:53:07;9.50;1.00
3312;DHT22;1668;49.648;8.570;2024-03-23T11:55:46;9.50;1.00
3312;DHT22;1668;49.648;8.570;2024-03-23T11:58:14;9.50;1.00
3312;DHT22;1668;49.648;8.570;2024-03-23T12:00:43;9.50;1.00
3312;DHT22;1668;49.648;8.570;2024-03-23T12:03:16;9.60;1.00
3312;DHT22;1668;49.648;8.570;2024-03-23T12:05:48;9.70;1.00
3312;DHT22;1668;49.648;8.570;2024-03-23T12:08:19;9.80;1.00
3312;DHT22;1668;49.648;8.570;2024-03-23T12:10:48;10.30;1.00
3312;DHT22;1668;49.648;8.570;2024-03-23T12:13:17;10.30;1.00
3312;DHT22;1668;49.648;8.570;2024-03-23T12:15:45;10.30;1.00
3312;DHT22;1668;49.648;8.570;2024-03-23T12:18:13;10.20;1.00
3312;DHT22;1668;49.648;8.570;2024-03-23T12:20:39;10.20;1.00
3312;DHT22;1668;49.648;8.570;2024-03-23T12:23:08;10.20;1.00
3312;DHT22;1668;49.648;8.570;2024-03-23T12:25:36;10.10;1.00
3312;DHT22;1668;49.648;8.570;2024-03-23T12:28:03;10.00;1.00
3312;DHT22;1668;49.648;8.570;2024-03-23T12:30:32;10.00;1.00
3312;DHT22;1668;49.648;8.570;2024-03-23T12:33:00;10.00;1.00
3312;DHT22;1668;49.648;8.570;2024-03-23T12:35:27;9.90;1.00
3312;DHT22;1668;49.648;8.570;2024-03-23T12:37:54;9.80;1.00
3312;DHT22;1668;49.648;8.570;2024-03-23T12:40:20;9.70;1.00
3312;DHT22;1668;49.648;8.570;2024-03-23T12:42:47;9.70;1.00
3312;DHT22;1668;49.648;8.570;2024-03-23T12:45:14;9.70;21.80
3312;DHT22;1668;49.648;8.570;2024-03-23T12:47:41;9.70;49.30
3312;DHT22;1668;49.648;8.570;2024-03-23T12:50:09;9.60;48.90
3312;DHT22;1668;49.648;8.570;2024-03-23T12:52:37;9.60;94.80
3312;DHT22;1668;49.648;8.570;2024-03-23T12:55:03;9.60;99.90
3312;DHT22;1668;49.648;8.570;2024-03-23T12:57:31;9.60;47.20
3312;DHT22;1668;49.648;8.570;2024-03-23T12:59:58;9.60;46.40
3312;DHT22;1668;49.648;8.570;2024-03-23T13:02:25;9.60;56.00
3312;DHT22;1668;49.648;8.570;2024-03-23T13:04:52;9.50;1.00
3312;DHT22;1668;49.648;8.570;2024-03-23T13:07:22;9.40;1.00
3312;DHT22;1668;49.648;8.570;2024-03-23T13:09:50;9.40;1.00
3312;DHT22;1668;49.648;8.570;2024-03-23T13:12:18;9.40;1.00
3312;DHT22;1668;49.648;8.570;2024-03-23T13:14:44;9.30;1.00
3312;DHT22;1668;49.648;8.570;2024-03-23T13:17:11;9.40;1.00
3312;DHT22;1668;49.648;8.570;2024-03-23T13:19:37;9.50;1.00
3312;DHT22;1668;49.648;8.570;2024-03-23T13:22:05;9.40;1.00
3312;DHT22;1668;49.648;8.570;2024-03-23T13:24:32;9.50;1.00
3312;DHT22;1668;49.648;8.570;2024-03-23T13:26:59;9.60;1.00
3312;DHT22;1668;49.648;8.570;2024-03-23T13:29:25;9.60;1.00
3312;DHT22;1668;49.648;8.570;2024-03-23T13:31:52;9.70;1.00
3312;DHT22;1668;49.648;8.570;2024-03-23T13:34:18;9.80;1.00
3312;DHT22;1668;49.648;8.570;2024-03-23T13:36:46;10.00;1.00
3312;DHT22;1668;49.648;8.570;2024-03-23T13:39:12;10.10;1.00
3312;DHT22;1668;49.648;8.570;2024-03-23T13:41:42;10.10;1.00
3312;DHT22;1668;49.648;8.570;2024-03-23T13:44:09;10.10;1.00
3312;DHT22;1668;49.648;8.570;2024-03-23T13:46:37;10.10;1.00
3312;DHT22;1668;49.648;8.570;2024-03-23T13:49:03;10.20;1.00
3312;DHT22;1668;49.648;8.570;2024-03-23T13:51:30;10.30;1.00
3312;DHT22;1668;49.648;8.570;2024-03-23T13:53:56;10.20;1.00
3312;DHT22;1668;49.648;8.570;2024-03-23T13:56:26;10.30;1.00
3312;DHT22;1668;49.648;8.570;2024-03-23T13:58:55;10.50;1.00
3312;DHT22;1668;49.648;8.570;2024-03-23T14:01:22;10.60;1.00
3312;DHT22;1668;49.648;8.570;2024-03-23T14:03:48;10.50;1.00
3312;DHT22;1668;49.648;8.570;2024-03-23T14:06:15;10.50;1.00
3312;DHT22;1668;49.648;8.570;2024-03-23T14:08:41;10.40;1.00
3312;DHT22;1668;49.648;8.570;2024-03-23T14:11:09;10.40;1.00
3312;DHT22;1668;49.648;8.570;2024-03-23T14:13:36;10.70;1.00
3312;DHT22;1668;49.648;8.570;2024-03-23T14:16:05;10.90;1.00
3312;DHT22;1668;49.648;8.570;2024-03-23T14:18:31;10.90;1.00
3312;DHT22;1668;49.648;8.570;2024-03-23T14:20:59;11.00;1.00
3312;DHT22;1668;49.648;8.570;2024-03-23T14:23:26;11.00;1.00
3312;DHT22;1668;49.648;8.570;2024-03-23T14:25:54;10.90;1.00
3312;DHT22;1668;49.648;8.570;2024-03-23T14:28:21;10.80;1.00
3312;DHT22;1668;49.648;8.570;2024-03-23T14:30:48;10.70;1.00
3312;DHT22;1668;49.648;8.570;2024-03-23T14:33:16;10.70;1.00
3312;DHT22;1668;49.648;8.570;2024-03-23T14:35:51;10.60;1.00
3312;DHT22;1668;49.648;8.570;2024-03-23T14:38:17;10.70;1.00
3312;DHT22;1668;49.648;8.570;2024-03-23T14:40:44;10.70;1.00
3312;DHT22;1668;49.648;8.570;2024-03-23T14:43:10;10.60;1.00
3312;DHT22;1668;49.648;8.570;2024-03-23T14:45:36;10.70;1.00
3312;DHT22;1668;49.648;8.570;2024-03-23T14:48:03;10.70;1.00
3312;DHT22;1668;49.648;8.570;2024-03-23T14:50:31;10.70;1.00
3312;DHT22;1668;49.648;8.570;2024-03-23T14:52:57;10.60;1.00
3312;DHT22;1668;49.648;8.570;2024-03-23T14:55:24;10.50;1.00
3312;DHT22;1668;49.648;8.570;2024-03-23T14:57:49;10.50;1.00
3312;DHT22;1668;49.648;8.570;2024-03-23T15:00:17;10.50;1.00
3312;DHT22;1668;49.648;8.570;2024-03-23T15:02:44;10.50;1.00
3312;DHT22;1668;49.648;8.570;2024-03-23T15:05:11;10.50;1.00
3312;DHT22;1668;49.648;8.570;2024-03-23T15:07:38;10.40;1.00
3312;DHT22;1668;49.648;8.570;2024-03-23T15:10:07;10.30;1.00
3312;DHT22;1668;49.648;8.570;2024-03-23T15:12:33;10.30;1.00
3312;DHT22;1668;49.648;8.570;2024-03-23T15:15:00;10.20;1.00
3312;DHT22;1668;49.648;8.570;2024-03-23T15:17:26;10.10;1.00
3312;DHT22;1668;49.648;8.570;2024-03-23T15:19:53;10.10;1.00
3312;DHT22;1668;49.648;8.570;2024-03-23T15:22:19;9.70;1.00
3312;DHT22;1668;49.648;8.570;2024-03-23T15:24:48;9.60;1.00
3312;DHT22;1668;49.648;8.570;2024-03-23T15:27:14;9.40;1.00
3312;DHT22;1668;49.648;8.570;2024-03-23T15:29:40;9.20;92.50
3312;DHT22;1668;49.648;8.570;2024-03-23T15:32:11;8.90;1.00
3312;DHT22;1668;49.648;8.570;2024-03-23T15:34:39;9.00;99.90
3312;DHT22;1668;49.648;8.570;2024-03-23T15:37:05;8.90;1.00
3312;DHT22;1668;49.648;8.570;2024-03-23T15:39:32;8.90;99.90
3312;DHT22;1668;49.648;8.570;2024-03-23T15:41:59;8.90;48.40
3312;DHT22;1668;49.648;8.570;2024-03-23T15:44:26;8.90;20.50
3312;DHT22;1668;49.648;8.570;2024-03-23T15:46:52;8.90;1.00
3312;DHT22;1668;49.648;8.570;2024-03-23T15:49:19;9.00;99.90
3312;DHT22;1668;49.648;8.570;2024-03-23T15:51:45;9.10;8.50
3312;DHT22;1668;49.648;8.570;2024-03-23T15:54:12;9.10;1.00
3312;DHT22;1668;49.648;8.570;2024-03-23T15:56:37;9.10;1.00
3312;DHT22;1668;49.648;8.570;2024-03-23T15:59:06;9.20;1.00
3312;DHT22;1668;49.648;8.570;2024-03-23T16:01:32;9.30;1.00
3312;DHT22;1668;49.648;8.570;2024-03-23T16:04:01;9.40;1.00
3312;DHT22;1668;49.648;8.570;2024-03-23T16:06:27;9.40;1.00
3312;DHT22;1668;49.648;8.570;2024-03-23T16:08:54;9.40;1.00
3312;DHT22;1668;49.648;8.570;2024-03-23T16:11:20;9.40;1.00
3312;DHT22;1668;49.648;8.570;2024-03-23T16:13:47;9.30;1.00
3312;DHT22;1668;49.648;8.570;2024-03-23T16:16:14;9.20;1.00
3312;DHT22;1668;49.648;8.570;2024-03-23T16:18:42;9.20;1.00
3312;DHT22;1668;49.648;8.570;2024-03-23T16:21:09;9.10;1.00
3312;DHT22;1668;49.648;8.570;2024-03-23T16:23:37;9.00;1.00
3312;DHT22;1668;49.648;8.570;2024-03-23T16:26:04;9.00;45.50
3312;DHT22;1668;49.648;8.570;2024-03-23T16:28:32;9.10;72.70
3312;DHT22;1668;49.648;8.570;2024-03-23T16:30:59;9.10;56.00
3312;DHT22;1668;49.648;8.570;2024-03-23T16:33:28;9.00;22.30
3312;DHT22;1668;49.648;8.570;2024-03-23T16:35:59;8.90;50.30
3312;DHT22;1668;49.648;8.570;2024-03-23T16:38:27;8.90;99.90
3312;DHT22;1668;49.648;8.570;2024-03-23T16:40:54;8.90;96.90
3312;DHT22;1668;49.648;8.570;2024-03-23T16:43:22;8.90;99.90
3312;DHT22;1668;49.648;8.570;2024-03-23T16:45:56;8.80;99.90
3312;DHT22;1668;49.648;8.570;2024-03-23T16:48:23;8.70;99.90
3312;DHT22;1668;49.648;8.570;2024-03-23T16:50:52;8.70;99.90
3312;DHT22;1668;49.648;8.570;2024-03-23T16:53:18;8.60;77.20
3312;DHT22;1668;49.648;8.570;2024-03-23T16:55:45;8.60;97.80
3312;DHT22;1668;49.648;8.570;2024-03-23T16:58:11;8.60;99.90
3312;DHT22;1668;49.648;8.570;2024-03-23T17:00:38;8.40;96.00
3312;DHT22;1668;49.648;8.570;2024-03-23T17:03:04;8.40;99.90
3312;DHT22;1668;49.648;8.570;2024-03-23T17:05:40;8.40;99.90
3312;DHT22;1668;49.648;8.570;2024-03-23T17:08:09;8.30;99.90
3312;DHT22;1668;49.648;8.570;2024-03-23T17:10:36;8.20;99.90
3312;DHT22;1668;49.648;8.570;2024-03-23T17:13:02;8.10;99.90